Bookmark and Share
Track history (hours):
 

Karla A

Last reported at 2014-Apr-15 08:33 UTC. Time now 2014-Apr-18 08:10 UTC.
Position N 37°36' E 024°26'.

Length 155 m; draft 8.8 m.

Type: Ship. MMSI: 271000744.

NotesDate/timePositionNaut miles runAvg speedWind from/ knotsBaromVisibWave heightAir tempDewpointWater temp
2014-Apr-15 08:33N 37°36' E 024°26'2713.2
2014-Apr-15 06:32N 37°15' E 024°05'1313.2
2014-Apr-15 05:34N 37°05' E 023°55'2613.0
2014-Apr-15 03:33N 36°45' E 023°33'1313.1
2014-Apr-15 02:33N 36°35' E 023°23'  
2014-Apr-12 22:25N 38°56' E 009°29'1112.8
2014-Apr-12 21:33N 39°02' E 009°17'1211.8
2014-Apr-12 20:33N 39°09' E 009°06'4 3.7
2014-Apr-12 19:31N 39°13' E 009°04'0 0.0
2014-Apr-12 18:33N 39°13' E 009°04'0 0.0
2014-Apr-12 17:33N 39°13' E 009°04'0 0.0
2014-Apr-12 16:32N 39°13' E 009°04'0 0.0
2014-Apr-12 15:32N 39°13' E 009°04'0 0.0
2014-Apr-12 14:31N 39°13' E 009°04'0 0.0
2014-Apr-12 13:31N 39°13' E 009°04'0 0.0
2014-Apr-12 12:31N 39°13' E 009°04'0 0.0
2014-Apr-12 11:33N 39°13' E 009°04'0 0.0
2014-Apr-12 10:33N 39°13' E 009°04'6 6.2
2014-Apr-12 09:33N 39°07' E 009°06'1111.5
2014-Apr-12 08:33N 38°56' E 009°03'1312.7
2014-Apr-12 07:30N 38°49' E 008°48'7912.8
2014-Apr-12 01:19N 38°28' E 007°11'1113.0
2014-Apr-12 00:26N 38°24' E 006°57'4113.5
2014-Apr-11 21:24N 38°14' E 006°06'1213.9
2014-Apr-11 20:33N 38°11' E 005°52'5813.1
2014-Apr-11 16:09N 37°55' E 004°41'4813.1
2014-Apr-11 12:32N 37°42' E 003°44'1913.0
2014-Apr-11 11:04N 37°37' E 003°20'2012.8
2014-Apr-11 09:32N 37°32' E 002°57'1312.9
2014-Apr-11 08:33N 37°28' E 002°41'1413.5
2014-Apr-11 07:31N 37°25' E 002°24'1313.8
2014-Apr-11 06:33N 37°21' E 002°08'6813.5
2014-Apr-11 01:32N 37°03' E 000°46'4113.5
2014-Apr-10 22:31N 36°52' W 000°03'5413.3
2014-Apr-10 18:28N 36°37' W 001°08'19413.5
2014-Apr-10 04:05N 36°02' W 005°04'713.1
2014-Apr-10 03:33N 36°02' W 005°12'1211.9
2014-Apr-10 02:33N 36°08' W 005°24'1 1.3
2014-Apr-10 01:29N 36°08' W 005°26'0 0.0
2014-Apr-10 00:31N 36°08' W 005°26'0 0.0
2014-Apr-09 23:31N 36°08' W 005°26'0 0.0
2014-Apr-09 22:33N 36°08' W 005°26'0 0.0
2014-Apr-09 21:30N 36°08' W 005°26'1 0.9
2014-Apr-09 20:33N 36°09' W 005°25'1 1.1
2014-Apr-09 19:32N 36°08' W 005°25'0 0.0
2014-Apr-09 18:32N 36°08' W 005°25'0 0.0
2014-Apr-09 17:31N 36°08' W 005°25'0 0.0
2014-Apr-09 16:31N 36°08' W 005°25'0 0.0
2014-Apr-09 15:30N 36°08' W 005°25'0 0.0
2014-Apr-09 14:33N 36°08' W 005°25'0 0.0
2014-Apr-09 13:32N 36°08' W 005°25'0 0.0
2014-Apr-09 12:32N 36°08' W 005°25'0 0.0
2014-Apr-09 11:32N 36°08' W 005°25'0 0.0
2014-Apr-09 10:31N 36°08' W 005°25'0 0.0
2014-Apr-09 09:31N 36°08' W 005°25'1 1.4
2014-Apr-09 08:33N 36°07' W 005°24'8 8.3
2014-Apr-09 07:33N 35°59' W 005°25'10 1.0
2014-Apr-08 22:13N 35°53' W 005°34'0 0.1
2014-Apr-08 21:25N 35°53' W 005°34'13 6.5
2014-Apr-08 19:29N 35°53' W 005°49'  
2014-Apr-06 11:31N 35°59' W 005°32'1010.8
2014-Apr-06 10:33N 36°01' W 005°20'1111.0
2014-Apr-06 09:33N 36°03' W 005°06'  

Dump ship's entire track history

sailing weather and tide predictions

Karla A — TCCR8 — position and weather